Seastreak Highlands — WDE4031 — position and weather

sailwx.info

Track history (hours):
 
Tides and Currents Weather Stations Pressure Air Temp Water Temp Dewpoint Dewpoint Depression Visibility Wind Speed Wind Dir Waves Ship Positions

Seastreak Highlands

Owner: Seastreak llc, atlantic highlands, NJ. More information available from US FCC via Universal Licensing System and Coast Guard Vessel Documentation Center.

Last reported at 2017-Nov-18 03:56 UTC. Time now 2017-Nov-18 19:33 UTC.
Position N 40°25' W 074°02'.

Length 44 m.

Type: High speed craft. MMSI: 367347670.

Date/timePositionNaut miles runAvg speedWind from/ knotsBaromVisibWave heightAir tempDewpointWater temp
2017-Nov-18 03:56N 40°25' W 074°02'2 5.1
2017-Nov-18 03:29N 40°27' W 074°01'1531.1
2017-Nov-18 03:01N 40°42' W 074°00'3 5.7
2017-Nov-18 02:30N 40°45' W 073°58'815.4
2017-Nov-18 02:01N 40°38' W 074°03'1323.9
2017-Nov-18 01:27N 40°25' W 073°60'0 0.0
2017-Nov-18 01:00N 40°25' W 073°60'0 0.1
2017-Nov-18 00:16N 40°25' W 073°60'0 1.3
2017-Nov-18 00:00N 40°25' W 074°00'1123.2
2017-Nov-17 23:30N 40°36' W 074°03'918.6
2017-Nov-17 23:01N 40°45' W 073°58'816.0
2017-Nov-17 22:31N 40°37' W 074°03'1223.9
2017-Nov-17 22:00N 40°25' W 074°01'1020.2
2017-Nov-17 21:30N 40°35' W 074°03'714.4
2017-Nov-17 21:01N 40°42' W 074°00'1 2.2
2017-Nov-17 20:31N 40°42' W 073°59'1428.0
2017-Nov-17 20:00N 40°28' W 074°02'4 4.0
2017-Nov-17 18:58N 40°25' W 073°60'2 4.0
2017-Nov-17 18:30N 40°25' W 074°02'0 0.0
2017-Nov-17 18:00N 40°25' W 074°02'0 0.0
2017-Nov-17 17:29N 40°25' W 074°02'0 0.0
2017-Nov-17 17:00N 40°25' W 074°02'0 0.0
2017-Nov-17 16:29N 40°25' W 074°02'0 0.0
2017-Nov-17 16:00N 40°25' W 074°02'0 0.0
2017-Nov-17 15:30N 40°25' W 074°02'0 0.0
2017-Nov-17 14:58N 40°25' W 074°02'0 0.0
2017-Nov-17 14:29N 40°25' W 074°02'0 0.0
2017-Nov-17 13:56N 40°25' W 074°02'0 0.0
2017-Nov-17 13:29N 40°25' W 074°02'0 0.0
2017-Nov-17 13:00N 40°25' W 074°02'0 0.0
2017-Nov-17 12:30N 40°25' W 074°02'0 0.0
2017-Nov-17 12:00N 40°25' W 074°02'0 0.0
2017-Nov-17 11:30N 40°25' W 074°02'0 0.0
2017-Nov-17 11:00N 40°25' W 074°02'0 0.0
2017-Nov-17 10:30N 40°25' W 074°02'0 0.0
2017-Nov-16 20:40N 40°25' W 074°02'0 0.0
2017-Nov-16 20:30N 40°25' W 074°02'0 0.2
2017-Nov-16 19:59N 40°25' W 074°02'2 3.7
2017-Nov-16 19:29N 40°25' W 073°60'919.2
2017-Nov-16 19:00N 40°34' W 074°02'917.3
2017-Nov-16 18:31N 40°42' W 074°00'0 0.7
2017-Nov-16 18:01N 40°42' W 074°00'1427.1
2017-Nov-16 17:30N 40°28' W 074°01'3 7.1
2017-Nov-16 17:00N 40°25' W 073°60'1428.5
2017-Nov-16 16:31N 40°39' W 074°02'612.7
2017-Nov-16 16:01N 40°44' W 073°58'5 9.9
2017-Nov-16 15:31N 40°40' W 074°01'1516.1
2017-Nov-16 14:35N 40°25' W 074°02'1 6.1
2017-Nov-16 14:28N 40°26' W 074°01'1329.1
2017-Nov-16 14:01N 40°39' W 074°02'612.6
2017-Nov-16 13:30N 40°45' W 073°58'612.1
2017-Nov-16 13:00N 40°39' W 074°02'14 1.6
2017-Nov-16 04:02N 40°25' W 074°02'0 0.3
2017-Nov-16 04:00N 40°25' W 074°02'3 6.3
2017-Nov-16 03:29N 40°28' W 074°01'1428.8
2017-Nov-16 03:00N 40°42' W 074°00'3 5.9
2017-Nov-16 02:30N 40°45' W 073°58'815.5
2017-Nov-16 02:01N 40°38' W 074°03'13 8.3
2017-Nov-16 00:24N 40°25' W 073°60'710.1
2017-Nov-15 23:44N 40°31' W 074°02'730.6
2017-Nov-15 23:30N 40°38' W 074°03'815.1
2017-Nov-15 23:00N 40°45' W 073°58'917.8
2017-Nov-15 22:31N 40°37' W 074°03'1222.6
2017-Nov-15 21:58N 40°25' W 073°60'1225.2
2017-Nov-15 21:30N 40°36' W 074°03'713.6
2017-Nov-15 21:00N 40°42' W 073°60'1 2.2
2017-Nov-15 20:30N 40°42' W 074°00'1530.4
2017-Nov-15 20:00N 40°26' W 074°01'2 3.8
2017-Nov-15 19:30N 40°25' W 073°60'1018.7
2017-Nov-15 18:59N 40°34' W 074°03'817.6
2017-Nov-15 18:31N 40°42' W 074°00'0 0.8
2017-Nov-15 18:00N 40°42' W 073°60'1427.3
2017-Nov-15 17:30N 40°28' W 074°02'2 4.6
2017-Nov-15 16:58N 40°26' W 074°01'1429.2
2017-Nov-15 16:31N 40°40' W 074°02'510.5
2017-Nov-15 16:00N 40°44' W 073°58'5 9.4
2017-Nov-15 15:31N 40°40' W 074°01'1527.6
2017-Nov-15 14:57N 40°25' W 074°02'0 0.0
2017-Nov-15 14:25N 40°25' W 074°02'1229.3
2017-Nov-15 14:00N 40°37' W 074°03'815.8
2017-Nov-15 13:30N 40°45' W 073°58'612.5
2017-Nov-15 13:01N 40°39' W 074°02'1422.8
2017-Nov-15 12:24N 40°25' W 074°02'2 4.1
2017-Nov-15 11:58N 40°25' W 073°60'0 0.0
2017-Nov-15 00:52N 40°25' W 073°60'0 0.1
2017-Nov-15 00:29N 40°25' W 073°60'1224.9
2017-Nov-15 00:01N 40°36' W 074°03'918.2
2017-Nov-14 23:30N 40°45' W 073°58'815.6
2017-Nov-14 23:01N 40°38' W 074°03'1224.2
2017-Nov-14 22:30N 40°25' W 074°01'917.6
2017-Nov-14 21:59N 40°34' W 074°02'919.2
2017-Nov-14 21:31N 40°43' W 073°58'2 3.1
2017-Nov-14 21:00N 40°45' W 073°58'2 0.4
2017-Nov-14 14:14N 40°47' W 073°56'311.5
2017-Nov-14 14:00N 40°45' W 073°58'713.9
2017-Nov-14 13:31N 40°38' W 074°02'1426.2
2017-Nov-14 12:59N 40°25' W 073°60'713.3
2017-Nov-14 12:25N 40°32' W 074°02'1331.5
2017-Nov-14 12:00N 40°45' W 073°58'714.6
2017-Nov-14 11:31N 40°38' W 074°02'1427.5
2017-Nov-14 11:00N 40°25' W 073°60'0 0.1
2017-Nov-14 10:30N 40°25' W 073°60'2 0.2
2017-Nov-14 01:37N 40°25' W 074°02'0 0.3
2017-Nov-14 01:30N 40°25' W 074°02'2 2.7
2017-Nov-14 00:48N 40°25' W 073°60'0 0.1
2017-Nov-14 00:23N 40°25' W 073°60'1130.5
2017-Nov-14 00:00N 40°36' W 074°03'918.7
2017-Nov-13 23:30N 40°45' W 073°58'613.2
2017-Nov-13 23:00N 40°39' W 074°02'1427.2
2017-Nov-13 22:30N 40°25' W 074°02'815.6
2017-Nov-13 22:00N 40°33' W 074°02'8 0.2
2017-Nov-12 00:50N 40°25' W 074°02'2 2.6
2017-Nov-12 00:07N 40°25' W 073°60'0 0.4
2017-Nov-12 00:00N 40°25' W 073°60'0 0.6
2017-Nov-11 23:29N 40°25' W 074°00'1021.2
2017-Nov-11 23:00N 40°35' W 074°02'1020.4
2017-Nov-11 22:31N 40°45' W 074°01'12 1.5
2017-Nov-11 14:42N 40°56' W 073°55'630.7
2017-Nov-11 14:30N 40°50' W 073°57'816.7
2017-Nov-11 14:01N 40°42' W 074°00'714.0
2017-Nov-11 13:31N 40°35' W 074°03'1020.1
2017-Nov-11 13:00N 40°25' W 074°02'2 0.2
2017-Nov-11 03:47N 40°25' W 073°60'716.2
2017-Nov-11 03:20N 40°32' W 074°02'1032.1
2017-Nov-11 03:00N 40°42' W 074°00'3 5.8
2017-Nov-11 02:30N 40°45' W 073°58'817.4
2017-Nov-11 02:01N 40°37' W 074°03'1321.3
2017-Nov-11 01:25N 40°25' W 073°60'0 0.0
2017-Nov-11 00:19N 40°25' W 073°60'1 4.3
2017-Nov-11 00:00N 40°26' W 074°01'918.8
2017-Nov-10 23:30N 40°35' W 074°02'1020.5
2017-Nov-10 23:00N 40°45' W 073°58'918.7
2017-Nov-10 22:30N 40°36' W 074°03'1221.4
2017-Nov-10 21:58N 40°25' W 073°60'1123.9
2017-Nov-10 21:30N 40°35' W 074°03'815.5
2017-Nov-10 21:00N 40°43' W 073°59'713.8
2017-Nov-10 20:31N 40°36' W 074°03'1221.7
2017-Nov-10 19:58N 40°25' W 073°60'0 0.4
2017-Nov-10 19:29N 40°25' W 073°60'917.4
2017-Nov-10 18:58N 40°33' W 074°02'919.5
2017-Nov-10 18:30N 40°42' W 073°60'1 1.4
2017-Nov-10 18:01N 40°42' W 074°00'1428.5
2017-Nov-10 17:30N 40°27' W 074°01'3 4.8
2017-Nov-10 16:58N 40°25' W 074°00'1431.6
2017-Nov-10 16:31N 40°39' W 074°02'611.5
2017-Nov-10 16:00N 40°44' W 073°58'917.8
2017-Nov-10 15:31N 40°36' W 074°03'1121.0
2017-Nov-10 15:00N 40°25' W 074°02'1 2.1
2017-Nov-10 14:28N 40°26' W 074°02'1430.6
2017-Nov-10 14:01N 40°40' W 074°01'5 9.7
2017-Nov-10 13:30N 40°45' W 073°58'918.0
2017-Nov-10 13:01N 40°36' W 074°02'1120.9
2017-Nov-10 12:29N 40°25' W 074°02'0 0.0
2017-Nov-10 12:00N 40°25' W 074°02'0 0.0
2017-Nov-10 03:59N 40°25' W 074°02'3 5.4
2017-Nov-10 03:30N 40°28' W 074°01'1429.8
2017-Nov-10 03:00N 40°42' W 074°00'3 5.9
2017-Nov-10 02:31N 40°45' W 073°58'510.3
2017-Nov-10 02:00N 40°40' W 074°01'1530.2
2017-Nov-10 01:30N 40°25' W 073°60'0 0.0
2017-Nov-10 00:18N 40°25' W 073°60'0 0.7
2017-Nov-10 00:00N 40°25' W 073°60'1223.1
2017-Nov-09 23:30N 40°36' W 074°03'918.4
2017-Nov-09 23:00N 40°45' W 073°58'714.9
2017-Nov-09 22:31N 40°38' W 074°03'1325.1
2017-Nov-09 22:00N 40°25' W 074°01'1020.4
2017-Nov-09 21:30N 40°36' W 074°03'713.8
2017-Nov-09 21:00N 40°42' W 074°00'1811.6
2017-Nov-09 19:29N 40°25' W 073°60'1018.8
2017-Nov-09 18:58N 40°34' W 074°03'818.0
2017-Nov-09 18:30N 40°42' W 074°00'1 2.9
2017-Nov-09 18:01N 40°43' W 073°58'1729.3
2017-Nov-09 17:27N 40°26' W 074°01'2 3.7
2017-Nov-09 17:00N 40°25' W 073°60'1632.4
2017-Nov-09 16:30N 40°41' W 074°02'5 9.8
2017-Nov-09 16:00N 40°44' W 073°58'713.2
2017-Nov-09 15:31N 40°39' W 074°02'1324.5
2017-Nov-09 14:58N 40°25' W 074°02'0 0.0
2017-Nov-09 14:30N 40°25' W 074°02'1530.0
2017-Nov-09 14:00N 40°40' W 074°01'510.8
2017-Nov-09 13:30N 40°45' W 073°58'611.7
2017-Nov-09 13:01N 40°39' W 074°02'1428.0
2017-Nov-09 12:30N 40°25' W 074°02'0 0.0
2017-Nov-09 12:00N 40°25' W 074°02'0 0.0
2017-Nov-09 11:30N 40°25' W 074°02'0 0.0
2017-Nov-09 11:00N 40°25' W 074°02'  
Track history (hours):
 
Tides and Currents Weather Stations Pressure Air Temp Water Temp Dewpoint Dewpoint Depression Visibility Wind Speed Wind Dir Waves Ship Positions

Seastreak Highlands

Owner: Seastreak llc, atlantic highlands, NJ. More information available from US FCC via Universal Licensing System and Coast Guard Vessel Documentation Center.

Last reported at 2017-Nov-18 03:56 UTC. Time now 2017-Nov-18 19:33 UTC.
Position N 40°25' W 074°02'.

Length 44 m.

Type: High speed craft. MMSI: 367347670.

Date/timePositionNaut miles runAvg speedWind from/ knotsBaromVisibWave heightAir tempDewpointWater temp
2017-Nov-18 03:56N 40°25' W 074°02'2 5.1
2017-Nov-18 03:29N 40°27' W 074°01'1531.1
2017-Nov-18 03:01N 40°42' W 074°00'3 5.7
2017-Nov-18 02:30N 40°45' W 073°58'815.4
2017-Nov-18 02:01N 40°38' W 074°03'1323.9
2017-Nov-18 01:27N 40°25' W 073°60'0 0.0
2017-Nov-18 01:00N 40°25' W 073°60'0 0.1
2017-Nov-18 00:16N 40°25' W 073°60'0 1.3
2017-Nov-18 00:00N 40°25' W 074°00'1123.2
2017-Nov-17 23:30N 40°36' W 074°03'918.6
2017-Nov-17 23:01N 40°45' W 073°58'816.0
2017-Nov-17 22:31N 40°37' W 074°03'1223.9
2017-Nov-17 22:00N 40°25' W 074°01'1020.2
2017-Nov-17 21:30N 40°35' W 074°03'714.4
2017-Nov-17 21:01N 40°42' W 074°00'1 2.2
2017-Nov-17 20:31N 40°42' W 073°59'1428.0
2017-Nov-17 20:00N 40°28' W 074°02'4 4.0
2017-Nov-17 18:58N 40°25' W 073°60'2 4.0
2017-Nov-17 18:30N 40°25' W 074°02'0 0.0
2017-Nov-17 18:00N 40°25' W 074°02'0 0.0
2017-Nov-17 17:29N 40°25' W 074°02'0 0.0
2017-Nov-17 17:00N 40°25' W 074°02'0 0.0
2017-Nov-17 16:29N 40°25' W 074°02'0 0.0
2017-Nov-17 16:00N 40°25' W 074°02'0 0.0
2017-Nov-17 15:30N 40°25' W 074°02'0 0.0
2017-Nov-17 14:58N 40°25' W 074°02'0 0.0
2017-Nov-17 14:29N 40°25' W 074°02'0 0.0
2017-Nov-17 13:56N 40°25' W 074°02'0 0.0
2017-Nov-17 13:29N 40°25' W 074°02'0 0.0
2017-Nov-17 13:00N 40°25' W 074°02'0 0.0
2017-Nov-17 12:30N 40°25' W 074°02'0 0.0
2017-Nov-17 12:00N 40°25' W 074°02'0 0.0
2017-Nov-17 11:30N 40°25' W 074°02'0 0.0
2017-Nov-17 11:00N 40°25' W 074°02'0 0.0
2017-Nov-17 10:30N 40°25' W 074°02'0 0.0
2017-Nov-16 20:40N 40°25' W 074°02'0 0.0
2017-Nov-16 20:30N 40°25' W 074°02'0 0.2
2017-Nov-16 19:59N 40°25' W 074°02'2 3.7
2017-Nov-16 19:29N 40°25' W 073°60'919.2
2017-Nov-16 19:00N 40°34' W 074°02'917.3
2017-Nov-16 18:31N 40°42' W 074°00'0 0.7
2017-Nov-16 18:01N 40°42' W 074°00'1427.1
2017-Nov-16 17:30N 40°28' W 074°01'3 7.1
2017-Nov-16 17:00N 40°25' W 073°60'1428.5
2017-Nov-16 16:31N 40°39' W 074°02'612.7
2017-Nov-16 16:01N 40°44' W 073°58'5 9.9
2017-Nov-16 15:31N 40°40' W 074°01'1516.1
2017-Nov-16 14:35N 40°25' W 074°02'1 6.1
2017-Nov-16 14:28N 40°26' W 074°01'1329.1
2017-Nov-16 14:01N 40°39' W 074°02'612.6
2017-Nov-16 13:30N 40°45' W 073°58'612.1
2017-Nov-16 13:00N 40°39' W 074°02'14 1.6
2017-Nov-16 04:02N 40°25' W 074°02'0 0.3
2017-Nov-16 04:00N 40°25' W 074°02'3 6.3
2017-Nov-16 03:29N 40°28' W 074°01'1428.8
2017-Nov-16 03:00N 40°42' W 074°00'3 5.9
2017-Nov-16 02:30N 40°45' W 073°58'815.5
2017-Nov-16 02:01N 40°38' W 074°03'13 8.3
2017-Nov-16 00:24N 40°25' W 073°60'710.1
2017-Nov-15 23:44N 40°31' W 074°02'730.6
2017-Nov-15 23:30N 40°38' W 074°03'815.1
2017-Nov-15 23:00N 40°45' W 073°58'917.8
2017-Nov-15 22:31N 40°37' W 074°03'1222.6
2017-Nov-15 21:58N 40°25' W 073°60'1225.2
2017-Nov-15 21:30N 40°36' W 074°03'713.6
2017-Nov-15 21:00N 40°42' W 073°60'1 2.2
2017-Nov-15 20:30N 40°42' W 074°00'1530.4
2017-Nov-15 20:00N 40°26' W 074°01'2 3.8
2017-Nov-15 19:30N 40°25' W 073°60'1018.7
2017-Nov-15 18:59N 40°34' W 074°03'817.6
2017-Nov-15 18:31N 40°42' W 074°00'0 0.8
2017-Nov-15 18:00N 40°42' W 073°60'1427.3
2017-Nov-15 17:30N 40°28' W 074°02'2 4.6
2017-Nov-15 16:58N 40°26' W 074°01'1429.2
2017-Nov-15 16:31N 40°40' W 074°02'510.5
2017-Nov-15 16:00N 40°44' W 073°58'5 9.4
2017-Nov-15 15:31N 40°40' W 074°01'1527.6
2017-Nov-15 14:57N 40°25' W 074°02'0 0.0
2017-Nov-15 14:25N 40°25' W 074°02'1229.3
2017-Nov-15 14:00N 40°37' W 074°03'815.8
2017-Nov-15 13:30N 40°45' W 073°58'612.5
2017-Nov-15 13:01N 40°39' W 074°02'1422.8
2017-Nov-15 12:24N 40°25' W 074°02'2 4.1
2017-Nov-15 11:58N 40°25' W 073°60'0 0.0
2017-Nov-15 00:52N 40°25' W 073°60'0 0.1
2017-Nov-15 00:29N 40°25' W 073°60'1224.9
2017-Nov-15 00:01N 40°36' W 074°03'918.2
2017-Nov-14 23:30N 40°45' W 073°58'815.6
2017-Nov-14 23:01N 40°38' W 074°03'1224.2
2017-Nov-14 22:30N 40°25' W 074°01'917.6
2017-Nov-14 21:59N 40°34' W 074°02'919.2
2017-Nov-14 21:31N 40°43' W 073°58'2 3.1
2017-Nov-14 21:00N 40°45' W 073°58'2 0.4
2017-Nov-14 14:14N 40°47' W 073°56'311.5
2017-Nov-14 14:00N 40°45' W 073°58'713.9
2017-Nov-14 13:31N 40°38' W 074°02'1426.2
2017-Nov-14 12:59N 40°25' W 073°60'713.3
2017-Nov-14 12:25N 40°32' W 074°02'1331.5
2017-Nov-14 12:00N 40°45' W 073°58'714.6
2017-Nov-14 11:31N 40°38' W 074°02'1427.5
2017-Nov-14 11:00N 40°25' W 073°60'0 0.1
2017-Nov-14 10:30N 40°25' W 073°60'2 0.2
2017-Nov-14 01:37N 40°25' W 074°02'0 0.3
2017-Nov-14 01:30N 40°25' W 074°02'2 2.7
2017-Nov-14 00:48N 40°25' W 073°60'0 0.1
2017-Nov-14 00:23N 40°25' W 073°60'1130.5
2017-Nov-14 00:00N 40°36' W 074°03'918.7
2017-Nov-13 23:30N 40°45' W 073°58'613.2
2017-Nov-13 23:00N 40°39' W 074°02'1427.2
2017-Nov-13 22:30N 40°25' W 074°02'815.6
2017-Nov-13 22:00N 40°33' W 074°02'8 0.2
2017-Nov-12 00:50N 40°25' W 074°02'2 2.6
2017-Nov-12 00:07N 40°25' W 073°60'0 0.4
2017-Nov-12 00:00N 40°25' W 073°60'0 0.6
2017-Nov-11 23:29N 40°25' W 074°00'1021.2
2017-Nov-11 23:00N 40°35' W 074°02'1020.4
2017-Nov-11 22:31N 40°45' W 074°01'12 1.5
2017-Nov-11 14:42N 40°56' W 073°55'630.7
2017-Nov-11 14:30N 40°50' W 073°57'816.7
2017-Nov-11 14:01N 40°42' W 074°00'714.0
2017-Nov-11 13:31N 40°35' W 074°03'1020.1
2017-Nov-11 13:00N 40°25' W 074°02'2 0.2
2017-Nov-11 03:47N 40°25' W 073°60'716.2
2017-Nov-11 03:20N 40°32' W 074°02'1032.1
2017-Nov-11 03:00N 40°42' W 074°00'3 5.8
2017-Nov-11 02:30N 40°45' W 073°58'817.4
2017-Nov-11 02:01N 40°37' W 074°03'1321.3
2017-Nov-11 01:25N 40°25' W 073°60'0 0.0
2017-Nov-11 00:19N 40°25' W 073°60'1 4.3
2017-Nov-11 00:00N 40°26' W 074°01'918.8
2017-Nov-10 23:30N 40°35' W 074°02'1020.5
2017-Nov-10 23:00N 40°45' W 073°58'918.7
2017-Nov-10 22:30N 40°36' W 074°03'1221.4
2017-Nov-10 21:58N 40°25' W 073°60'1123.9
2017-Nov-10 21:30N 40°35' W 074°03'815.5
2017-Nov-10 21:00N 40°43' W 073°59'713.8
2017-Nov-10 20:31N 40°36' W 074°03'1221.7
2017-Nov-10 19:58N 40°25' W 073°60'0 0.4
2017-Nov-10 19:29N 40°25' W 073°60'917.4
2017-Nov-10 18:58N 40°33' W 074°02'919.5
2017-Nov-10 18:30N 40°42' W 073°60'1 1.4
2017-Nov-10 18:01N 40°42' W 074°00'1428.5
2017-Nov-10 17:30N 40°27' W 074°01'3 4.8
2017-Nov-10 16:58N 40°25' W 074°00'1431.6
2017-Nov-10 16:31N 40°39' W 074°02'611.5
2017-Nov-10 16:00N 40°44' W 073°58'917.8
2017-Nov-10 15:31N 40°36' W 074°03'1121.0
2017-Nov-10 15:00N 40°25' W 074°02'1 2.1
2017-Nov-10 14:28N 40°26' W 074°02'1430.6
2017-Nov-10 14:01N 40°40' W 074°01'5 9.7
2017-Nov-10 13:30N 40°45' W 073°58'918.0
2017-Nov-10 13:01N 40°36' W 074°02'1120.9
2017-Nov-10 12:29N 40°25' W 074°02'0 0.0
2017-Nov-10 12:00N 40°25' W 074°02'0 0.0
2017-Nov-10 03:59N 40°25' W 074°02'3 5.4
2017-Nov-10 03:30N 40°28' W 074°01'1429.8
2017-Nov-10 03:00N 40°42' W 074°00'3 5.9
2017-Nov-10 02:31N 40°45' W 073°58'510.3
2017-Nov-10 02:00N 40°40' W 074°01'1530.2
2017-Nov-10 01:30N 40°25' W 073°60'0 0.0
2017-Nov-10 00:18N 40°25' W 073°60'0 0.7
2017-Nov-10 00:00N 40°25' W 073°60'1223.1
2017-Nov-09 23:30N 40°36' W 074°03'918.4
2017-Nov-09 23:00N 40°45' W 073°58'714.9
2017-Nov-09 22:31N 40°38' W 074°03'1325.1
2017-Nov-09 22:00N 40°25' W 074°01'1020.4
2017-Nov-09 21:30N 40°36' W 074°03'713.8
2017-Nov-09 21:00N 40°42' W 074°00'1811.6
2017-Nov-09 19:29N 40°25' W 073°60'1018.8
2017-Nov-09 18:58N 40°34' W 074°03'818.0
2017-Nov-09 18:30N 40°42' W 074°00'1 2.9
2017-Nov-09 18:01N 40°43' W 073°58'1729.3
2017-Nov-09 17:27N 40°26' W 074°01'2 3.7
2017-Nov-09 17:00N 40°25' W 073°60'1632.4
2017-Nov-09 16:30N 40°41' W 074°02'5 9.8
2017-Nov-09 16:00N 40°44' W 073°58'713.2
2017-Nov-09 15:31N 40°39' W 074°02'1324.5
2017-Nov-09 14:58N 40°25' W 074°02'0 0.0
2017-Nov-09 14:30N 40°25' W 074°02'1530.0
2017-Nov-09 14:00N 40°40' W 074°01'510.8
2017-Nov-09 13:30N 40°45' W 073°58'611.7
2017-Nov-09 13:01N 40°39' W 074°02'1428.0
2017-Nov-09 12:30N 40°25' W 074°02'0 0.0
2017-Nov-09 12:00N 40°25' W 074°02'0 0.0
2017-Nov-09 11:30N 40°25' W 074°02'0 0.0
2017-Nov-09 11:00N 40°25' W 074°02'  

Dump ship's entire track history